Terminal Aerodrome Forecast
Issued by NWS Sioux Falls, SD

Home | Current Version | Previous Version | Text Only | Print | Product List | Glossary On
Versions: 1 2 3 4 5 6 7 8 9 10 11 12 13 14 15
000
FTUS43 KFSD 271131
TAFFSD
TAF
KFSD 271131Z 2712/2812 VRB03KT P6SM SCT200
     FM271600 17006KT P6SM BKN120
     FM272100 17011KT P6SM OVC060
     FM280100 14010KT 6SM -SN SCT020 OVC035 PROB30 2801/2803 4SM -SN
      BR BKN020
     FM280500 12008KT P6SM SCT015 BKN040=

USA.gov is the U.S. government's official web portal to all federal, state and local government web resources and services.